createdAt,value
2023-02-11T00:02:29.778Z,31.50
2023-02-11T00:05:01.706Z,33.85
2023-02-11T00:07:36.667Z,36.67
2023-02-11T00:10:08.210Z,32.67
2023-02-11T00:12:39.870Z,34.33
2023-02-11T00:15:12.353Z,34.42
2023-02-11T00:17:43.772Z,33.20
2023-02-11T00:20:14.735Z,31.50
2023-02-11T00:22:48.121Z,34.00
2023-02-11T00:25:19.191Z,32.00
2023-02-11T00:27:50.105Z,34.85
2023-02-11T00:30:21.280Z,33.35
2023-02-11T00:32:52.129Z,29.35
2023-02-11T00:35:22.946Z,30.42
2023-02-11T00:37:56.923Z,33.42
2023-02-11T00:40:27.782Z,34.75
2023-02-11T00:42:58.669Z,31.20
2023-02-11T00:45:30.980Z,30.05
2023-02-11T00:48:01.929Z,31.98
2023-02-11T00:50:32.869Z,34.17
2023-02-11T00:53:06.376Z,29.60
2023-02-11T00:55:37.218Z,29.48
2023-02-11T00:58:08.103Z,33.13
2023-02-11T01:00:39.393Z,38.80
2023-02-11T01:03:10.215Z,33.20
2023-02-11T01:05:41.038Z,39.92
2023-02-11T01:08:18.704Z,35.10
2023-02-11T01:10:56.624Z,36.83
2023-02-11T01:13:27.728Z,32.72
2023-02-11T01:15:59.275Z,34.22
2023-02-11T01:18:30.538Z,43.20
2023-02-11T01:21:01.382Z,36.15
2023-02-11T01:23:34.798Z,40.40
2023-02-11T01:26:05.704Z,36.35
2023-02-11T01:28:36.914Z,35.55
2023-02-11T01:31:08.155Z,34.22
2023-02-11T01:33:39.049Z,34.67
2023-02-11T01:36:11.548Z,37.70
2023-02-11T01:38:45.801Z,36.50
2023-02-11T01:41:17.848Z,34.58
2023-02-11T01:43:50.832Z,35.97
2023-02-11T01:46:33.402Z,30.27
2023-02-11T01:49:10.357Z,34.13
2023-02-11T01:54:33.845Z,32.05
2023-02-11T01:57:17.989Z,33.55
2023-02-11T01:59:53.550Z,34.22
2023-02-11T02:02:30.238Z,29.98
2023-02-11T02:07:39.511Z,35.42
2023-02-11T02:12:47.578Z,29.58
2023-02-11T02:15:24.790Z,33.50
2023-02-11T02:18:13.197Z,32.67
2023-02-11T02:21:24.281Z,30.17
2023-02-11T02:24:39.525Z,27.67
2023-02-11T02:27:38.921Z,31.08
2023-02-11T02:30:39.011Z,30.25
2023-02-11T02:33:31.861Z,25.60
2023-02-11T02:36:19.963Z,27.23
2023-02-11T02:38:56.064Z,28.02
2023-02-11T02:41:31.890Z,37.08
2023-02-11T02:44:03.234Z,32.65
2023-02-11T02:46:36.559Z,34.88
2023-02-11T02:49:15.408Z,29.85
2023-02-11T02:52:19.191Z,32.22
2023-02-11T02:55:12.044Z,35.28
2023-02-11T02:57:56.754Z,35.88
2023-02-11T03:00:35.724Z,31.80
2023-02-11T03:03:20.988Z,36.47
2023-02-11T03:05:59.598Z,35.45
2023-02-11T03:08:36.079Z,36.85
2023-02-11T03:11:08.670Z,45.22
2023-02-11T03:13:42.866Z,44.53
2023-02-11T03:16:17.909Z,47.25
2023-02-11T03:18:53.434Z,45.45
2023-02-11T03:21:28.544Z,53.80
2023-02-11T03:24:04.203Z,42.30
2023-02-11T03:26:39.186Z,41.15
2023-02-11T03:29:19.854Z,42.70
2023-02-11T03:32:01.941Z,44.67
2023-02-11T03:34:40.727Z,41.25
2023-02-11T03:37:19.086Z,45.15
2023-02-11T03:39:56.783Z,39.22
2023-02-11T03:42:31.926Z,42.20
2023-02-11T03:45:06.881Z,43.20
2023-02-11T03:47:41.531Z,49.00
2023-02-11T03:50:16.104Z,42.83
2023-02-11T03:52:51.605Z,38.05
2023-02-11T03:55:26.114Z,41.53
2023-02-11T03:57:57.204Z,48.35
2023-02-11T04:00:33.927Z,44.40
2023-02-11T04:03:04.915Z,44.00
2023-02-11T04:05:36.054Z,47.10
2023-02-11T04:08:09.585Z,52.80
2023-02-11T04:10:40.434Z,35.10
2023-02-11T04:13:11.233Z,39.00
2023-02-11T04:15:42.157Z,43.03
2023-02-11T04:18:13.072Z,41.55
2023-02-11T04:20:43.922Z,38.15
2023-02-11T04:23:17.342Z,35.55
2023-02-11T04:25:48.790Z,38.05
2023-02-11T04:28:19.992Z,37.20
2023-02-11T04:30:53.407Z,45.05
2023-02-11T04:33:24.280Z,32.45
2023-02-11T04:35:55.072Z,34.83
2023-02-11T04:38:28.477Z,31.20
2023-02-11T04:41:00.828Z,37.38
2023-02-11T04:43:31.646Z,36.20
2023-02-11T04:46:02.460Z,33.70
2023-02-11T04:48:33.285Z,37.08
2023-02-11T04:51:04.155Z,31.38
2023-02-11T04:53:37.545Z,30.88
2023-02-11T04:56:08.975Z,29.40
2023-02-11T04:58:39.785Z,26.15
2023-02-11T05:01:11.535Z,33.33
2023-02-11T05:03:43.298Z,30.17
2023-02-11T05:06:14.897Z,32.40
2023-02-11T05:08:48.326Z,28.58
2023-02-11T05:11:21.545Z,31.20
2023-02-11T05:13:52.420Z,29.85
2023-02-11T05:16:23.392Z,31.27
2023-02-11T05:18:57.509Z,28.35
2023-02-11T05:21:28.841Z,27.83
2023-02-11T05:24:02.302Z,27.38
2023-02-11T05:26:33.153Z,28.98
2023-02-11T05:29:03.940Z,32.00
2023-02-11T05:31:34.821Z,30.33
2023-02-11T05:34:06.481Z,28.95
2023-02-11T05:36:37.238Z,30.88
2023-02-11T05:39:10.685Z,36.75
2023-02-11T05:41:41.688Z,34.67
2023-02-11T05:44:12.636Z,34.10
2023-02-11T05:46:43.620Z,41.70
2023-02-11T05:49:14.728Z,43.72
2023-02-11T05:51:45.657Z,38.72
2023-02-11T05:54:19.762Z,39.17
2023-02-11T05:56:50.598Z,44.50
2023-02-11T05:59:21.457Z,41.95
2023-02-11T06:01:52.238Z,39.13
2023-02-11T06:04:23.583Z,46.47
2023-02-11T06:06:54.379Z,46.65
2023-02-11T06:09:30.540Z,38.33
2023-02-11T06:12:01.414Z,40.88
2023-02-11T06:14:32.368Z,35.35
2023-02-11T06:17:03.181Z,37.42
2023-02-11T06:19:34.098Z,27.52
2023-02-11T06:22:05.027Z,30.85
2023-02-11T06:24:58.941Z,30.02
2023-02-11T06:27:29.448Z,24.52
2023-02-11T06:30:00.618Z,27.08
2023-02-11T06:32:47.345Z,29.15
2023-02-11T06:35:18.459Z,30.10
2023-02-11T06:37:49.944Z,34.30
2023-02-11T06:40:23.538Z,32.45
2023-02-11T06:42:54.435Z,31.17
2023-02-11T06:45:25.290Z,30.60
2023-02-11T06:47:56.451Z,32.67
2023-02-11T06:50:27.461Z,30.73
2023-02-11T06:52:58.235Z,30.45
2023-02-11T06:55:31.635Z,29.25
2023-02-11T06:58:02.481Z,32.55
2023-02-11T07:00:33.367Z,31.40
2023-02-11T07:03:04.224Z,29.90
2023-02-11T07:05:35.384Z,34.58
2023-02-11T07:08:06.152Z,30.98
2023-02-11T07:10:40.176Z,27.27
2023-02-11T07:13:11.054Z,32.78
2023-02-11T07:15:41.869Z,28.48
2023-02-11T07:18:14.665Z,26.08
2023-02-11T07:20:45.698Z,27.58
2023-02-11T07:23:16.514Z,27.52
2023-02-11T07:25:50.238Z,25.63
2023-02-11T07:28:21.200Z,24.80
2023-02-11T07:30:52.039Z,24.95
2023-02-11T07:33:22.950Z,27.67
2023-02-11T07:35:53.772Z,25.23
2023-02-11T07:38:24.542Z,24.88
2023-02-11T07:40:58.042Z,21.48
2023-02-11T07:43:28.804Z,26.55
2023-02-11T07:45:59.611Z,22.27
2023-02-11T07:48:30.410Z,26.42
2023-02-11T07:51:09.649Z,23.98
2023-02-11T07:53:41.320Z,26.33
2023-02-11T07:56:16.035Z,27.17
2023-02-11T07:58:47.291Z,25.92
2023-02-11T08:01:22.721Z,26.02
2023-02-11T08:03:54.034Z,24.90
2023-02-11T08:06:26.955Z,24.75
2023-02-11T08:08:57.646Z,27.75
2023-02-11T08:11:31.921Z,29.27
2023-02-11T08:14:02.757Z,27.38
2023-02-11T08:16:35.580Z,27.13
2023-02-11T08:19:08.559Z,26.80
2023-02-11T08:21:39.561Z,29.42
2023-02-11T08:24:10.972Z,27.55
2023-02-11T08:26:44.695Z,31.08
2023-02-11T08:29:17.380Z,28.70
2023-02-11T08:31:50.430Z,33.78
2023-02-11T08:34:22.297Z,30.75
2023-02-11T08:36:54.238Z,27.58
2023-02-11T08:39:25.800Z,27.02
2023-02-11T08:41:59.543Z,30.63
2023-02-11T08:44:30.648Z,29.00
2023-02-11T08:47:01.402Z,29.35
2023-02-11T08:49:34.242Z,28.10
2023-02-11T08:52:05.227Z,29.92
2023-02-11T08:54:36.078Z,30.45
2023-02-11T08:57:09.725Z,29.10
2023-02-11T08:59:40.492Z,29.08
2023-02-11T09:02:15.584Z,26.80
2023-02-11T09:04:46.399Z,26.40
2023-02-11T09:07:17.207Z,26.35
2023-02-11T09:09:48.202Z,29.05
2023-02-11T09:12:21.616Z,30.50
2023-02-11T09:14:52.471Z,27.15
2023-02-11T09:17:23.266Z,25.50
2023-02-11T09:19:54.189Z,26.83
2023-02-11T09:22:25.052Z,25.08
2023-02-11T09:24:55.937Z,23.48
2023-02-11T09:27:29.507Z,25.40
2023-02-11T09:30:00.355Z,25.33
2023-02-11T09:32:31.386Z,25.30
2023-02-11T09:35:02.395Z,23.13
2023-02-11T09:37:35.685Z,23.02
2023-02-11T09:40:08.818Z,26.55
2023-02-11T09:42:49.328Z,30.70
2023-02-11T09:45:23.369Z,27.30
2023-02-11T09:47:58.914Z,29.48
2023-02-11T09:50:33.261Z,31.45
2023-02-11T09:53:06.540Z,32.92
2023-02-11T09:55:43.020Z,35.35
2023-02-11T09:58:20.834Z,47.55
2023-02-11T10:01:00.537Z,49.72
2023-02-11T10:03:56.309Z,47.42
2023-02-11T10:06:46.220Z,39.60
2023-02-11T10:09:37.281Z,31.80
2023-02-11T10:12:27.994Z,40.63
2023-02-11T10:15:18.192Z,32.38
2023-02-11T10:18:11.458Z,37.30
2023-02-11T10:20:50.905Z,43.17
2023-02-11T10:23:27.753Z,36.80
2023-02-11T10:26:00.546Z,33.85
2023-02-11T10:28:34.316Z,32.53
2023-02-11T10:31:15.410Z,35.50
2023-02-11T10:33:50.118Z,33.22
2023-02-11T10:36:24.594Z,33.20
2023-02-11T10:38:55.415Z,28.77
2023-02-11T10:41:32.706Z,29.27
2023-02-11T10:44:04.615Z,29.38
2023-02-11T10:46:41.023Z,31.30
2023-02-11T10:49:11.873Z,29.63
2023-02-11T10:51:42.750Z,28.92
2023-02-11T10:54:24.571Z,28.02
2023-02-11T10:57:02.886Z,27.75
2023-02-11T10:59:38.653Z,30.02
2023-02-11T11:02:32.094Z,29.10
2023-02-11T11:05:06.324Z,33.55
2023-02-11T11:07:38.200Z,31.90
2023-02-11T11:10:11.498Z,26.63
2023-02-11T11:12:52.051Z,23.90
2023-02-11T11:15:26.180Z,25.48
2023-02-11T11:18:22.999Z,23.75
2023-02-11T11:21:01.909Z,27.67
2023-02-11T11:23:34.269Z,24.65
2023-02-11T11:26:08.257Z,25.77
2023-02-11T11:28:43.885Z,22.83
2023-02-11T11:31:19.681Z,28.77
2023-02-11T11:33:56.470Z,23.40
2023-02-11T11:36:35.215Z,21.48
2023-02-11T11:39:20.354Z,22.25
2023-02-11T11:41:56.649Z,18.88
2023-02-11T11:44:34.053Z,20.52
2023-02-11T11:47:27.082Z,21.45
2023-02-11T11:50:19.011Z,21.20
2023-02-11T11:52:58.179Z,21.80
2023-02-11T11:55:31.738Z,17.35
2023-02-11T11:58:02.568Z,16.27
2023-02-11T12:00:39.388Z,16.58
2023-02-11T12:03:35.020Z,16.58
2023-02-11T12:06:24.229Z,18.33
2023-02-11T12:09:04.831Z,16.15
2023-02-11T12:11:43.428Z,18.45
2023-02-11T12:14:27.253Z,18.00
2023-02-11T12:17:04.773Z,17.52
2023-02-11T12:19:48.210Z,13.98
2023-02-11T12:22:33.789Z,16.42
2023-02-11T12:25:25.641Z,16.17
2023-02-11T12:28:06.171Z,17.75
2023-02-11T12:31:11.407Z,15.80
2023-02-11T12:34:00.890Z,16.38
2023-02-11T12:36:46.764Z,15.60
2023-02-11T12:39:34.598Z,16.48
2023-02-11T12:42:56.855Z,14.60
2023-02-11T12:45:45.438Z,18.42
2023-02-11T12:48:27.506Z,15.05
2023-02-11T12:51:02.715Z,15.68
2023-02-11T12:53:47.778Z,13.63
2023-02-11T12:56:26.154Z,13.95
2023-02-11T12:59:01.481Z,16.08
2023-02-11T13:01:38.693Z,16.83
2023-02-11T13:04:13.992Z,15.82
2023-02-11T13:06:50.437Z,17.02
2023-02-11T13:09:26.356Z,15.20
2023-02-11T13:12:23.857Z,18.55
2023-02-11T13:14:57.668Z,16.65
2023-02-11T13:17:35.939Z,17.48
2023-02-11T13:20:19.557Z,15.27
2023-02-11T13:22:57.350Z,22.75
2023-02-11T13:25:35.266Z,13.63
2023-02-11T13:28:24.094Z,16.50
2023-02-11T13:31:02.849Z,15.63
2023-02-11T13:33:39.724Z,17.60
2023-02-11T13:36:25.824Z,16.27
2023-02-11T13:39:05.775Z,13.32
2023-02-11T13:41:42.462Z,15.48
2023-02-11T13:44:29.009Z,13.55
2023-02-11T13:47:03.595Z,14.30
2023-02-11T13:49:41.074Z,12.70
2023-02-11T13:52:25.756Z,10.88
2023-02-11T13:54:59.959Z,9.77
2023-02-11T13:57:38.929Z,11.25
2023-02-11T14:00:51.946Z,10.02
2023-02-11T14:03:47.923Z,15.75
2023-02-11T14:06:36.814Z,15.80
2023-02-11T14:09:37.367Z,49.83
2023-02-11T14:12:37.537Z,35.53
2023-02-11T14:15:24.408Z,25.55
2023-02-11T14:17:55.478Z,26.33
2023-02-11T14:20:47.852Z,20.95
2023-02-11T14:23:28.816Z,23.35
2023-02-11T14:26:29.388Z,13.30
2023-02-11T14:29:05.832Z,12.98
2023-02-11T14:31:44.888Z,15.30
2023-02-11T14:34:43.188Z,12.93
2023-02-11T14:37:27.131Z,15.25
2023-02-11T14:40:12.820Z,13.38
2023-02-11T14:42:44.408Z,11.18
2023-02-11T14:45:25.089Z,10.32
2023-02-11T14:48:01.785Z,12.07
2023-02-11T14:50:40.215Z,11.10
2023-02-11T14:53:18.871Z,13.60
2023-02-11T14:55:52.686Z,10.35
2023-02-11T14:58:26.624Z,11.93
2023-02-11T15:01:00.381Z,9.70
2023-02-11T15:03:34.315Z,10.35
2023-02-11T15:06:08.989Z,10.40
2023-02-11T15:08:48.565Z,11.90
2023-02-11T15:11:22.376Z,9.68
2023-02-11T15:13:55.588Z,9.57
2023-02-11T15:16:29.269Z,9.02
2023-02-11T15:19:04.617Z,11.63
2023-02-11T15:21:39.002Z,8.55
2023-02-11T15:24:26.915Z,8.23
2023-02-11T15:27:02.683Z,6.13
2023-02-11T15:29:40.546Z,6.97
2023-02-11T15:32:17.858Z,16.13
2023-02-11T15:34:50.090Z,11.57
2023-02-11T15:37:24.262Z,8.38
2023-02-11T15:39:58.464Z,16.90
2023-02-11T15:42:40.830Z,11.35
2023-02-11T15:45:29.298Z,6.65
2023-02-11T15:48:12.169Z,10.30
2023-02-11T15:50:47.114Z,13.65
2023-02-11T15:53:26.900Z,18.23
2023-02-11T15:56:07.238Z,6.20
2023-02-11T15:58:40.870Z,10.93
2023-02-11T16:01:13.278Z,21.50
2023-02-11T16:03:45.430Z,31.00
2023-02-11T16:06:21.015Z,27.55
2023-02-11T16:09:03.438Z,25.83
2023-02-11T16:11:38.718Z,8.13
2023-02-11T16:14:26.614Z,11.27
2023-02-11T16:17:00.745Z,28.38
2023-02-11T16:19:32.695Z,15.68
2023-02-11T16:22:10.933Z,8.13
2023-02-11T16:24:43.167Z,23.92
2023-02-11T16:27:25.581Z,24.20
2023-02-11T16:29:56.637Z,17.67
2023-02-11T16:32:29.042Z,25.45
2023-02-11T16:35:02.421Z,9.10
2023-02-11T16:37:33.635Z,9.35
2023-02-11T16:40:04.810Z,16.25
2023-02-11T16:42:38.512Z,5.85
2023-02-11T16:45:09.703Z,6.20
2023-02-11T16:47:41.285Z,5.63
2023-02-11T16:50:15.259Z,8.32
2023-02-11T16:52:47.410Z,6.88
2023-02-11T16:55:18.503Z,9.18
2023-02-11T16:57:52.042Z,6.78
2023-02-11T17:00:24.125Z,7.30
2023-02-11T17:02:55.029Z,9.35
2023-02-11T17:05:27.244Z,11.05
2023-02-11T17:07:58.322Z,10.80
2023-02-11T17:10:30.985Z,13.32
2023-02-11T17:13:05.178Z,13.55
2023-02-11T17:15:36.285Z,11.07
2023-02-11T17:18:07.315Z,8.75
2023-02-11T17:20:38.164Z,9.50
2023-02-11T17:23:08.932Z,13.80
2023-02-11T17:25:40.880Z,9.40
2023-02-11T17:28:15.021Z,9.00
2023-02-11T17:30:45.812Z,8.05
2023-02-11T17:33:16.681Z,12.07
2023-02-11T17:35:47.585Z,10.88
2023-02-11T17:38:18.420Z,12.75
2023-02-11T17:40:49.182Z,7.38
2023-02-11T17:43:23.123Z,7.55
2023-02-11T17:45:54.202Z,11.82
2023-02-11T17:48:25.239Z,12.32
2023-02-11T17:50:56.063Z,8.85
2023-02-11T17:53:26.848Z,9.48
2023-02-11T17:55:58.919Z,12.18
2023-02-11T17:58:32.329Z,11.32
2023-02-11T18:01:03.272Z,13.65
2023-02-11T18:03:34.316Z,11.65
2023-02-11T18:06:06.314Z,18.55
2023-02-11T18:08:37.611Z,19.88
2023-02-11T18:11:12.608Z,18.42
2023-02-11T18:13:51.602Z,15.88
2023-02-11T18:16:22.429Z,16.80
2023-02-11T18:18:53.483Z,12.30
2023-02-11T18:21:26.444Z,11.95
2023-02-11T18:23:57.462Z,18.50
2023-02-11T18:26:28.786Z,24.48
2023-02-11T18:29:04.016Z,23.08
2023-02-11T18:31:35.480Z,19.77
2023-02-11T18:34:07.735Z,13.00
2023-02-11T18:36:39.100Z,10.40
2023-02-11T18:39:09.986Z,12.32
2023-02-11T18:41:42.491Z,11.38
2023-02-11T18:44:22.303Z,14.02
2023-02-11T18:46:53.169Z,16.40
2023-02-11T18:49:24.402Z,16.55
2023-02-11T18:51:55.157Z,18.40
2023-02-11T18:54:25.934Z,18.27
2023-02-11T18:56:56.743Z,17.67
2023-02-11T18:59:30.284Z,16.58
2023-02-11T19:02:01.159Z,18.60
2023-02-11T19:04:32.126Z,17.42
2023-02-11T19:07:04.546Z,15.70
2023-02-11T19:09:35.520Z,15.13
2023-02-11T19:12:08.139Z,20.35
2023-02-11T19:14:41.657Z,16.25
2023-02-11T19:17:13.665Z,22.58
2023-02-11T19:19:44.477Z,16.80
2023-02-11T19:22:15.359Z,18.38
2023-02-11T19:24:46.162Z,19.55
2023-02-11T19:27:16.878Z,19.50
2023-02-11T19:29:50.525Z,21.58
2023-02-11T19:32:21.466Z,19.10
2023-02-11T19:34:53.382Z,16.63
2023-02-11T19:37:24.194Z,15.57
2023-02-11T19:39:54.972Z,18.65
2023-02-11T19:42:27.587Z,15.60
2023-02-11T19:45:01.554Z,12.07
2023-02-11T19:47:32.507Z,11.27
2023-02-11T19:50:03.542Z,22.73
2023-02-11T19:52:34.846Z,26.63
2023-02-11T19:55:05.710Z,25.50
2023-02-11T19:57:36.660Z,24.10
2023-02-11T20:00:11.629Z,32.88
2023-02-11T20:02:45.289Z,22.38
2023-02-11T20:05:16.122Z,15.68
2023-02-11T20:07:46.972Z,13.88
2023-02-11T20:10:17.726Z,11.27
2023-02-11T20:12:48.697Z,12.00
2023-02-11T20:15:22.441Z,10.00
2023-02-11T20:17:54.262Z,12.88
2023-02-11T20:20:26.525Z,10.73
2023-02-11T20:22:58.856Z,12.98
2023-02-11T20:25:29.824Z,10.95
2023-02-11T20:28:00.732Z,15.15
2023-02-11T20:30:34.220Z,10.93
2023-02-11T20:33:05.075Z,14.13
2023-02-11T20:35:36.004Z,12.90
2023-02-11T20:38:06.806Z,12.98
2023-02-11T20:40:38.642Z,11.48
2023-02-11T20:43:09.580Z,11.07
2023-02-11T20:45:43.192Z,12.88
2023-02-11T20:48:14.009Z,10.93
2023-02-11T20:50:47.952Z,15.25
2023-02-11T20:53:19.096Z,13.27
2023-02-11T20:55:50.217Z,11.18
2023-02-11T20:58:21.192Z,11.70
2023-02-11T21:00:54.646Z,10.95
2023-02-11T21:03:25.564Z,13.38
2023-02-11T21:06:00.992Z,11.15
2023-02-11T21:08:32.054Z,10.90
2023-02-11T21:11:02.979Z,10.95
2023-02-11T21:13:34.549Z,12.00
2023-02-11T21:16:08.827Z,11.80
2023-02-11T21:18:39.863Z,12.13
2023-02-11T21:21:11.285Z,11.75
2023-02-11T21:23:42.505Z,12.55
2023-02-11T21:26:13.921Z,11.82
2023-02-11T21:28:45.043Z,9.43
2023-02-11T21:31:24.303Z,13.13
2023-02-11T21:33:56.352Z,12.63
2023-02-11T21:36:27.565Z,10.45
2023-02-11T21:38:58.888Z,10.73
2023-02-11T21:41:29.916Z,11.48
2023-02-11T21:44:01.150Z,10.95
2023-02-11T21:46:34.986Z,10.48
2023-02-11T21:49:05.749Z,10.13
2023-02-11T21:51:36.558Z,11.00
2023-02-11T21:54:07.690Z,10.38
2023-02-11T21:56:38.467Z,10.20
2023-02-11T21:59:09.266Z,9.98
2023-02-11T22:01:42.784Z,10.70
2023-02-11T22:04:14.213Z,9.65
2023-02-11T22:06:45.052Z,9.25
2023-02-11T22:09:15.971Z,9.95
2023-02-11T22:11:46.892Z,11.82
2023-02-11T22:14:17.689Z,12.93
2023-02-11T22:16:51.646Z,12.63
2023-02-11T22:19:23.913Z,10.15
2023-02-11T22:21:55.161Z,11.25
2023-02-11T22:24:26.158Z,9.55
2023-02-11T22:26:56.955Z,9.52
2023-02-11T22:29:27.753Z,9.90
2023-02-11T22:32:01.612Z,11.75
2023-02-11T22:34:32.797Z,9.82
2023-02-11T22:37:04.043Z,11.27
2023-02-11T22:39:35.032Z,10.63
2023-02-11T22:42:05.913Z,11.40
2023-02-11T22:44:36.778Z,9.88
2023-02-11T22:47:10.225Z,11.88
2023-02-11T22:49:41.626Z,12.98
2023-02-11T22:52:12.405Z,13.15
2023-02-11T22:54:43.215Z,9.68
2023-02-11T22:57:14.182Z,11.18
2023-02-11T22:59:45.036Z,9.80
2023-02-11T23:02:18.577Z,10.10
2023-02-11T23:04:50.087Z,10.95
2023-02-11T23:07:20.859Z,12.43
2023-02-11T23:09:51.616Z,10.15
2023-02-11T23:12:22.455Z,10.50
2023-02-11T23:14:54.655Z,11.65
2023-02-11T23:17:29.160Z,12.10
2023-02-11T23:19:59.982Z,10.10
2023-02-11T23:22:30.840Z,15.10
2023-02-11T23:25:01.869Z,11.10
2023-02-11T23:27:32.780Z,10.00
2023-02-11T23:30:04.082Z,10.50
2023-02-11T23:32:37.680Z,11.57
2023-02-11T23:35:09.138Z,9.73
2023-02-11T23:37:40.103Z,12.05
2023-02-11T23:40:12.462Z,11.13
2023-02-11T23:42:43.281Z,10.88
2023-02-11T23:45:14.314Z,9.82
2023-02-11T23:47:47.892Z,9.93
2023-02-11T23:50:19.321Z,11.18
2023-02-11T23:52:50.450Z,10.73
2023-02-11T23:55:21.369Z,10.80
2023-02-11T23:57:52.159Z,12.77
